Leoma, TN (38468)

2:01 PM CST on March 01, 2017 (GMT -0600)
KTNLEOMA3 | | Change Station

Elev 928 ft 35.14 °N, 87.34 °W | Updated 16 seconds ago

Mostly Cloudy
Mostly Cloudy
65.8 °F
Feels Like 65.8 °F
N
6.0
Wind Variable Wind from NW
Gusts 11.4 mph

Today
High -- | Low -- °F
--% Chance of Precip.
Yesterday
High -- | Low -- °F
Precip. -- in
Pressure 29.82 in
Visibility 10.0 miles
Clouds Clear
Dew Point 57 °F
Humidity 74%
Rainfall 0.81 in
Snow Depth Not available.
6:18 AM 5:45 PM
Waxing Crescent, 13% visible
METAR KMRC 011955Z AUTO 28011KT 240V310 10SM CLR 20/16 A2982 RMK
Pressure 29.82 in
Visibility 10.0 miles
Clouds Clear
Dew Point 57 °F
Humidity 74%
Rainfall 0.81 in
Snow Depth Not available.
6:18 AM 5:45 PM
Waxing Crescent, 13% visible
METAR KMRC 011955Z AUTO 28011KT 240V310 10SM CLR 20/16 A2982 RMK

Get Your Daily Forecast Email!

Thanks for signing up!

Be on the lookout for a verification email in your inbox.

You'll start receiving the daily forecast at 8 AM.

×

10-Day Weather Forecast

Almanac

Astronomy

Mar. 01, 2017 Rise Set
Actual Time
Civil Twilight
Nautical Twilight
Astronomical Twilight
Moon
Length of Visible Light
Length of Day
Tomorrow will be .
, % of the Moon is Illuminated

Today's Extremes

State Highs State Lows

Community

WunderPhotos

Upload Photos

1,962,540 photos uploaded!

WunderBlog® & News

Nearby

Air Quality

  Air Quality AQ Index Pollutant
Not available.

Snow Depth

Station Depth Elevation

Earthquake Activity

City Distance Mag. Time & Date
Minimum magnitude displayed is 2.5.

Coastal Water Temperatures

Place Temperature

Stations

Nearby Weather Stations

Station Location Temp. Windchill Dew Point Humidity Wind Precip. Elev Updated Type
                   

Watches & Warnings

There are currently no watches in effect.